createdAt,value
2023-02-15T00:00:44.430Z,90.35
2023-02-15T00:01:44.451Z,90.14
2023-02-15T00:02:44.426Z,89.79
2023-02-15T00:03:44.368Z,89.58
2023-02-15T00:04:44.363Z,89.48
2023-02-15T00:05:44.346Z,89.06
2023-02-15T00:06:44.365Z,89.37
2023-02-15T00:07:44.335Z,88.96
2023-02-15T00:08:44.313Z,88.75
2023-02-15T00:09:44.302Z,89.06
2023-02-15T00:10:44.285Z,89.17
2023-02-15T00:11:44.278Z,88.75
2023-02-15T00:12:44.285Z,88.61
2023-02-15T00:13:44.272Z,88.40
2023-02-15T00:14:44.245Z,88.34
2023-02-15T00:15:44.234Z,89.21
2023-02-15T00:16:44.309Z,89.27
2023-02-15T00:17:44.213Z,89.42
2023-02-15T00:18:44.269Z,89.52
2023-02-15T00:19:44.250Z,89.79
2023-02-15T00:20:44.185Z,89.17
2023-02-15T00:21:44.163Z,89.17
2023-02-15T00:22:44.156Z,89.31
2023-02-15T00:23:44.143Z,89.73
2023-02-15T00:24:44.153Z,90.08
2023-02-15T00:25:44.122Z,90.50
2023-02-15T00:26:44.184Z,90.81
2023-02-15T00:27:44.446Z,91.02
2023-02-15T00:28:44.172Z,91.53
2023-02-15T00:29:44.073Z,90.97
2023-02-15T00:30:44.355Z,90.97
2023-02-15T00:31:44.091Z,91.08
2023-02-15T00:32:44.217Z,90.45
2023-02-15T00:33:44.031Z,90.10
2023-02-15T00:34:44.036Z,90.04
2023-02-15T00:35:44.009Z,90.35
2023-02-15T00:36:44.023Z,90.66
2023-02-15T00:37:43.994Z,90.70
2023-02-15T00:38:43.979Z,90.81
2023-02-15T00:39:43.975Z,90.60
2023-02-15T00:40:43.976Z,91.02
2023-02-15T00:41:43.946Z,90.91
2023-02-15T00:42:43.980Z,91.02
2023-02-15T00:43:43.921Z,91.02
2023-02-15T00:44:43.910Z,91.02
2023-02-15T00:45:43.923Z,90.66
2023-02-15T00:46:43.906Z,90.77
2023-02-15T00:47:43.890Z,90.56
2023-02-15T00:48:43.894Z,90.45
2023-02-15T00:49:43.853Z,90.25
2023-02-15T00:50:43.867Z,90.50
2023-02-15T00:51:43.830Z,90.60
2023-02-15T00:52:43.825Z,91.08
2023-02-15T00:53:43.820Z,90.66
2023-02-15T00:54:43.839Z,90.45
2023-02-15T00:55:43.781Z,90.20
2023-02-15T00:56:43.801Z,89.27
2023-02-15T00:57:43.788Z,89.42
2023-02-15T00:58:43.795Z,90.14
2023-02-15T00:59:43.779Z,90.25
2023-02-15T01:00:43.772Z,90.50
2023-02-15T01:01:43.730Z,90.87
2023-02-15T01:02:43.719Z,90.56
2023-02-15T01:03:43.746Z,90.29
2023-02-15T01:04:44.004Z,90.60
2023-02-15T01:05:43.669Z,90.97
2023-02-15T01:06:43.701Z,90.66
2023-02-15T01:07:44.010Z,90.56
2023-02-15T01:08:43.643Z,90.66
2023-02-15T01:09:43.634Z,90.14
2023-02-15T01:10:43.631Z,90.20
2023-02-15T01:11:43.614Z,89.89
2023-02-15T01:12:43.622Z,90.31
2023-02-15T01:13:43.592Z,89.48
2023-02-15T01:14:43.578Z,89.79
2023-02-15T01:15:44.183Z,89.79
2023-02-15T01:16:43.562Z,89.79
2023-02-15T01:17:43.532Z,89.17
2023-02-15T01:18:43.545Z,89.62
2023-02-15T01:19:43.529Z,90.10
2023-02-15T01:20:43.512Z,89.52
2023-02-15T01:21:43.561Z,89.94
2023-02-15T01:22:43.506Z,90.50
2023-02-15T01:23:50.712Z,90.77
2023-02-15T01:24:43.465Z,90.72
2023-02-15T01:25:43.529Z,90.62
2023-02-15T01:26:43.456Z,89.96
2023-02-15T01:27:43.432Z,89.13
2023-02-15T01:28:43.436Z,89.27
2023-02-15T01:29:43.423Z,88.96
2023-02-15T01:30:43.505Z,89.31
2023-02-15T01:31:43.466Z,90.04
2023-02-15T01:32:43.411Z,90.31
2023-02-15T01:33:43.367Z,90.20
2023-02-15T01:34:43.352Z,89.69
2023-02-15T01:35:43.356Z,89.27
2023-02-15T01:36:43.334Z,89.69
2023-02-15T01:37:43.311Z,89.27
2023-02-15T01:38:43.316Z,89.69
2023-02-15T01:39:43.291Z,89.37
2023-02-15T01:40:43.287Z,89.44
2023-02-15T01:41:43.291Z,89.13
2023-02-15T01:42:43.260Z,89.03
2023-02-15T01:43:43.261Z,88.61
2023-02-15T01:44:43.240Z,88.20
2023-02-15T01:45:43.221Z,88.40
2023-02-15T01:46:43.216Z,88.20
2023-02-15T01:47:43.212Z,88.61
2023-02-15T01:48:43.189Z,88.09
2023-02-15T01:49:43.185Z,88.40
2023-02-15T01:50:43.174Z,88.20
2023-02-15T01:51:43.148Z,88.20
2023-02-15T01:52:43.141Z,88.65
2023-02-15T01:53:43.155Z,89.03
2023-02-15T01:54:43.120Z,88.34
2023-02-15T01:55:43.107Z,88.69
2023-02-15T01:56:43.113Z,89.48
2023-02-15T01:57:43.091Z,88.85
2023-02-15T01:58:43.081Z,88.75
2023-02-15T01:59:43.092Z,88.44
2023-02-15T02:00:43.055Z,88.44
2023-02-15T02:01:43.088Z,88.34
2023-02-15T02:02:43.107Z,88.13
2023-02-15T02:03:43.026Z,88.54
2023-02-15T02:04:43.017Z,88.75
2023-02-15T02:05:43.027Z,88.44
2023-02-15T02:06:42.988Z,88.79
2023-02-15T02:07:42.974Z,88.90
2023-02-15T02:08:42.965Z,88.79
2023-02-15T02:09:42.955Z,89.15
2023-02-15T02:10:42.933Z,89.83
2023-02-15T02:11:42.945Z,89.67
2023-02-15T02:12:43.015Z,89.87
2023-02-15T02:13:42.906Z,90.50
2023-02-15T02:14:42.902Z,90.81
2023-02-15T02:15:42.961Z,90.56
2023-02-15T02:16:42.872Z,90.04
2023-02-15T02:17:42.878Z,90.14
2023-02-15T02:18:42.856Z,90.14
2023-02-15T02:19:42.845Z,89.52
2023-02-15T02:20:42.822Z,90.04
2023-02-15T02:21:42.838Z,89.73
2023-02-15T02:22:42.833Z,89.52
2023-02-15T02:23:42.795Z,89.42
2023-02-15T02:24:42.787Z,89.42
2023-02-15T02:25:42.773Z,89.87
2023-02-15T02:26:42.753Z,90.39
2023-02-15T02:27:42.750Z,90.50
2023-02-15T02:28:42.750Z,90.08
2023-02-15T02:29:42.731Z,90.25
2023-02-15T02:30:42.752Z,90.14
2023-02-15T02:31:42.798Z,89.83
2023-02-15T02:32:42.693Z,89.58
2023-02-15T02:33:42.701Z,88.75
2023-02-15T02:34:42.673Z,88.79
2023-02-15T02:35:42.661Z,88.90
2023-02-15T02:36:42.649Z,89.42
2023-02-15T02:37:42.641Z,88.96
2023-02-15T02:38:42.621Z,88.85
2023-02-15T02:39:42.636Z,88.79
2023-02-15T02:40:42.602Z,88.90
2023-02-15T02:41:42.602Z,89.21
2023-02-15T02:42:42.582Z,89.46
2023-02-15T02:43:42.572Z,89.83
2023-02-15T02:44:42.561Z,89.52
2023-02-15T02:45:42.578Z,89.73
2023-02-15T02:46:42.579Z,89.17
2023-02-15T02:47:42.529Z,89.06
2023-02-15T02:48:42.509Z,88.54
2023-02-15T02:49:42.500Z,88.59
2023-02-15T02:50:42.488Z,89.00
2023-02-15T02:51:42.512Z,89.31
2023-02-15T02:52:42.473Z,89.21
2023-02-15T02:53:42.459Z,89.52
2023-02-15T02:54:42.444Z,89.52
2023-02-15T02:55:42.436Z,89.17
2023-02-15T02:56:42.429Z,89.06
2023-02-15T02:57:42.428Z,88.44
2023-02-15T02:58:42.400Z,88.44
2023-02-15T02:59:42.389Z,88.02
2023-02-15T03:00:42.378Z,88.79
2023-02-15T03:01:42.413Z,88.48
2023-02-15T03:02:42.389Z,89.00
2023-02-15T03:03:42.382Z,89.00
2023-02-15T03:04:42.330Z,88.79
2023-02-15T03:05:42.328Z,89.11
2023-02-15T03:06:42.323Z,89.25
2023-02-15T03:07:42.321Z,90.29
2023-02-15T03:08:42.292Z,90.50
2023-02-15T03:09:42.307Z,90.50
2023-02-15T03:10:42.270Z,90.39
2023-02-15T03:11:42.259Z,90.70
2023-02-15T03:12:42.242Z,90.29
2023-02-15T03:13:42.230Z,90.19
2023-02-15T03:14:42.223Z,90.70
2023-02-15T03:15:42.271Z,90.81
2023-02-15T03:16:42.213Z,90.87
2023-02-15T03:17:42.190Z,89.94
2023-02-15T03:18:42.183Z,89.73
2023-02-15T03:19:42.171Z,89.31
2023-02-15T03:20:42.155Z,89.62
2023-02-15T03:21:42.162Z,89.87
2023-02-15T03:22:42.131Z,90.04
2023-02-15T03:23:42.121Z,89.52
2023-02-15T03:24:42.112Z,89.52
2023-02-15T03:25:42.102Z,90.25
2023-02-15T03:26:42.083Z,89.94
2023-02-15T03:27:42.132Z,90.19
2023-02-15T03:28:42.076Z,90.29
2023-02-15T03:29:42.063Z,90.35
2023-02-15T03:30:42.050Z,90.25
2023-02-15T03:31:42.145Z,89.83
2023-02-15T03:32:42.022Z,89.52
2023-02-15T03:33:42.046Z,89.42
2023-02-15T03:34:42.003Z,89.21
2023-02-15T03:35:42.004Z,89.62
2023-02-15T03:36:41.980Z,89.73
2023-02-15T03:37:41.971Z,89.62
2023-02-15T03:38:41.964Z,89.17
2023-02-15T03:39:41.963Z,89.27
2023-02-15T03:40:41.942Z,88.96
2023-02-15T03:41:41.922Z,88.02
2023-02-15T03:42:41.925Z,88.38
2023-02-15T03:43:41.904Z,89.21
2023-02-15T03:44:41.891Z,89.83
2023-02-15T03:45:41.900Z,89.52
2023-02-15T03:46:41.970Z,89.52
2023-02-15T03:47:41.859Z,89.67
2023-02-15T03:48:41.857Z,89.77
2023-02-15T03:49:41.833Z,90.14
2023-02-15T03:50:41.818Z,89.98
2023-02-15T03:51:41.827Z,90.25
2023-02-15T03:52:41.798Z,90.25
2023-02-15T03:53:41.804Z,89.73
2023-02-15T03:54:41.811Z,89.58
2023-02-15T03:55:41.767Z,89.52
2023-02-15T03:56:41.789Z,89.17
2023-02-15T03:57:41.744Z,89.31
2023-02-15T03:58:41.730Z,89.58
2023-02-15T03:59:41.718Z,89.11
2023-02-15T04:00:41.713Z,89.21
2023-02-15T04:01:41.696Z,89.31
2023-02-15T04:02:41.736Z,89.11
2023-02-15T04:03:41.677Z,89.21
2023-02-15T04:04:41.660Z,89.94
2023-02-15T04:05:41.664Z,89.83
2023-02-15T04:06:41.636Z,89.94
2023-02-15T04:07:41.632Z,89.73
2023-02-15T04:08:41.638Z,89.83
2023-02-15T04:09:41.606Z,89.89
2023-02-15T04:10:41.597Z,89.58
2023-02-15T04:11:41.607Z,89.27
2023-02-15T04:12:41.567Z,88.65
2023-02-15T04:13:41.566Z,88.65
2023-02-15T04:14:41.566Z,88.96
2023-02-15T04:15:41.552Z,88.96
2023-02-15T04:16:41.583Z,88.75
2023-02-15T04:17:41.525Z,89.00
2023-02-15T04:18:41.507Z,89.21
2023-02-15T04:19:41.505Z,89.52
2023-02-15T04:20:41.493Z,89.87
2023-02-15T04:21:41.473Z,90.14
2023-02-15T04:22:41.458Z,90.25
2023-02-15T04:23:41.456Z,90.25
2023-02-15T04:24:41.435Z,90.04
2023-02-15T04:25:41.432Z,89.94
2023-02-15T04:26:41.424Z,90.56
2023-02-15T04:27:41.400Z,90.25
2023-02-15T04:28:41.387Z,89.83
2023-02-15T04:29:41.384Z,90.14
2023-02-15T04:30:41.361Z,90.25
2023-02-15T04:31:41.472Z,89.94
2023-02-15T04:32:41.378Z,90.14
2023-02-15T04:33:41.333Z,90.14
2023-02-15T04:34:41.320Z,89.73
2023-02-15T04:35:41.313Z,89.83
2023-02-15T04:36:41.297Z,90.08
2023-02-15T04:37:41.287Z,90.50
2023-02-15T04:38:41.299Z,90.91
2023-02-15T04:39:41.268Z,90.66
2023-02-15T04:40:41.263Z,90.25
2023-02-15T04:41:41.238Z,90.25
2023-02-15T04:42:41.237Z,90.66
2023-02-15T04:43:41.216Z,90.66
2023-02-15T04:44:41.215Z,90.45
2023-02-15T04:45:41.202Z,90.45
2023-02-15T04:46:41.191Z,90.04
2023-02-15T04:47:41.175Z,90.35
2023-02-15T04:48:41.160Z,89.62
2023-02-15T04:49:41.156Z,90.08
2023-02-15T04:50:41.164Z,90.50
2023-02-15T04:51:41.126Z,91.22
2023-02-15T04:52:41.140Z,90.77
2023-02-15T04:53:41.105Z,90.77
2023-02-15T04:54:41.095Z,90.56
2023-02-15T04:55:41.101Z,90.66
2023-02-15T04:56:41.090Z,90.56
2023-02-15T04:57:41.065Z,90.25
2023-02-15T04:58:41.164Z,90.14
2023-02-15T04:59:41.035Z,90.35
2023-02-15T05:00:41.024Z,90.25
2023-02-15T05:01:41.016Z,90.14
2023-02-15T05:02:41.038Z,90.70
2023-02-15T05:03:40.995Z,90.60
2023-02-15T05:04:40.989Z,91.12
2023-02-15T05:05:40.974Z,91.12
2023-02-15T05:06:40.979Z,91.28
2023-02-15T05:07:40.953Z,90.77
2023-02-15T05:08:40.974Z,90.66
2023-02-15T05:09:40.934Z,90.70
2023-02-15T05:10:40.931Z,90.66
2023-02-15T05:11:40.928Z,90.35
2023-02-15T05:12:40.900Z,90.50
2023-02-15T05:13:40.879Z,90.77
2023-02-15T05:14:40.884Z,90.45
2023-02-15T05:15:40.861Z,90.66
2023-02-15T05:16:40.892Z,90.66
2023-02-15T05:17:40.842Z,90.14
2023-02-15T05:18:40.822Z,90.14
2023-02-15T05:19:40.833Z,89.73
2023-02-15T05:20:40.803Z,89.67
2023-02-15T05:21:40.793Z,90.50
2023-02-15T05:22:40.773Z,90.56
2023-02-15T05:23:40.777Z,90.08
2023-02-15T05:24:40.753Z,90.60
2023-02-15T05:25:40.893Z,91.02
2023-02-15T05:26:40.735Z,90.60
2023-02-15T05:27:40.724Z,90.39
2023-02-15T05:28:40.704Z,90.91
2023-02-15T05:29:40.705Z,91.22
2023-02-15T05:30:40.854Z,91.22
2023-02-15T05:31:40.856Z,91.53
2023-02-15T05:32:40.767Z,90.60
2023-02-15T05:33:40.670Z,90.77
2023-02-15T05:34:40.647Z,90.25
2023-02-15T05:35:40.635Z,89.94
2023-02-15T05:36:40.650Z,89.83
2023-02-15T05:37:40.617Z,90.14
2023-02-15T05:38:40.613Z,89.42
2023-02-15T05:39:40.607Z,89.73
2023-02-15T05:40:40.578Z,89.27
2023-02-15T05:41:40.569Z,88.90
2023-02-15T05:42:40.578Z,89.87
2023-02-15T05:43:40.560Z,90.14
2023-02-15T05:44:40.553Z,90.04
2023-02-15T05:45:40.567Z,90.29
2023-02-15T05:46:40.508Z,90.29
2023-02-15T05:47:40.508Z,90.95
2023-02-15T05:48:40.506Z,91.78
2023-02-15T05:49:40.478Z,91.95
2023-02-15T05:50:40.473Z,91.22
2023-02-15T05:51:40.457Z,91.02
2023-02-15T05:52:40.445Z,91.22
2023-02-15T05:53:40.448Z,91.74
2023-02-15T05:54:40.438Z,91.64
2023-02-15T05:55:40.416Z,91.60
2023-02-15T05:56:40.401Z,90.70
2023-02-15T05:57:40.395Z,91.64
2023-02-15T05:58:40.385Z,91.64
2023-02-15T05:59:40.371Z,91.64
2023-02-15T06:00:40.376Z,91.53
2023-02-15T06:01:40.346Z,91.12
2023-02-15T06:02:40.390Z,91.02
2023-02-15T06:03:40.416Z,91.43
2023-02-15T06:04:40.306Z,91.43
2023-02-15T06:05:40.308Z,91.08
2023-02-15T06:06:40.310Z,91.28
2023-02-15T06:07:40.288Z,90.93
2023-02-15T06:08:40.280Z,90.41
2023-02-15T06:09:40.258Z,89.69
2023-02-15T06:10:40.249Z,89.89
2023-02-15T06:11:40.241Z,89.21
2023-02-15T06:12:40.248Z,90.08
2023-02-15T06:13:40.217Z,90.87
2023-02-15T06:14:40.205Z,90.77
2023-02-15T06:15:40.238Z,90.62
2023-02-15T06:16:40.185Z,90.20
2023-02-15T06:17:40.173Z,89.27
2023-02-15T06:18:40.174Z,89.37
2023-02-15T06:19:40.146Z,89.34
2023-02-15T06:20:40.135Z,88.82
2023-02-15T06:21:40.136Z,88.82
2023-02-15T06:22:40.115Z,88.82
2023-02-15T06:23:40.105Z,88.34
2023-02-15T06:24:40.111Z,89.11
2023-02-15T06:25:40.109Z,89.77
2023-02-15T06:26:40.075Z,90.66
2023-02-15T06:27:40.052Z,89.94
2023-02-15T06:28:40.070Z,90.14
2023-02-15T06:29:40.070Z,89.94
2023-02-15T06:30:40.108Z,90.08
2023-02-15T06:31:40.309Z,90.60
2023-02-15T06:32:40.050Z,90.60
2023-02-15T06:33:40.005Z,91.16
2023-02-15T06:34:39.999Z,91.58
2023-02-15T06:35:39.965Z,91.78
2023-02-15T06:36:40.008Z,91.95
2023-02-15T06:37:39.943Z,91.43
2023-02-15T06:38:39.933Z,91.43
2023-02-15T06:39:39.923Z,91.68
2023-02-15T06:40:39.903Z,91.89
2023-02-15T06:41:39.893Z,92.26
2023-02-15T06:42:39.915Z,92.36
2023-02-15T06:43:41.019Z,91.64
2023-02-15T06:44:39.864Z,91.85
2023-02-15T06:45:39.853Z,91.33
2023-02-15T06:46:39.882Z,92.05
2023-02-15T06:47:39.821Z,91.74
2023-02-15T06:48:39.835Z,91.28
2023-02-15T06:49:39.812Z,91.49
2023-02-15T06:50:39.805Z,91.03
2023-02-15T06:51:39.781Z,90.56
2023-02-15T06:52:39.780Z,90.66
2023-02-15T06:53:39.791Z,91.12
2023-02-15T06:54:39.751Z,91.60
2023-02-15T06:55:39.748Z,90.87
2023-02-15T06:56:39.730Z,90.87
2023-02-15T06:57:39.720Z,91.35
2023-02-15T06:58:39.704Z,90.58
2023-02-15T06:59:39.708Z,89.92
2023-02-15T07:00:39.690Z,88.98
2023-02-15T07:01:39.689Z,88.46
2023-02-15T07:02:39.660Z,88.51
2023-02-15T07:03:39.649Z,88.92
2023-02-15T07:04:39.676Z,88.71
2023-02-15T07:05:39.625Z,88.51
2023-02-15T07:06:39.617Z,89.03
2023-02-15T07:07:39.605Z,89.27
2023-02-15T07:08:39.595Z,90.66
2023-02-15T07:09:39.576Z,90.83
2023-02-15T07:10:39.589Z,90.83
2023-02-15T07:11:39.554Z,91.24
2023-02-15T07:12:39.547Z,91.35
2023-02-15T07:13:39.548Z,90.66
2023-02-15T07:14:39.528Z,91.86
2023-02-15T07:15:39.551Z,91.10
2023-02-15T07:16:39.534Z,90.79
2023-02-15T07:17:39.483Z,90.37
2023-02-15T07:18:39.474Z,90.37
2023-02-15T07:19:39.461Z,90.58
2023-02-15T07:20:39.452Z,90.27
2023-02-15T07:21:39.441Z,90.27
2023-02-15T07:22:39.487Z,90.27
2023-02-15T07:23:39.480Z,90.27
2023-02-15T07:24:39.409Z,90.17
2023-02-15T07:25:39.405Z,90.72
2023-02-15T07:26:39.380Z,91.03
2023-02-15T07:27:39.385Z,91.03
2023-02-15T07:28:39.433Z,91.35
2023-02-15T07:29:39.358Z,91.24
2023-02-15T07:30:39.348Z,91.31
2023-02-15T07:31:39.331Z,91.58
2023-02-15T07:32:39.481Z,90.85
2023-02-15T07:33:39.312Z,90.54
2023-02-15T07:34:39.326Z,89.81
2023-02-15T07:35:39.279Z,90.12
2023-02-15T07:36:39.275Z,89.87
2023-02-15T07:37:39.251Z,89.81
2023-02-15T07:38:39.273Z,90.23
2023-02-15T07:39:39.242Z,90.02
2023-02-15T07:40:39.243Z,90.12
2023-02-15T07:41:39.213Z,90.64
2023-02-15T07:42:39.212Z,90.12
2023-02-15T07:43:39.247Z,90.44
2023-02-15T07:44:39.179Z,89.92
2023-02-15T07:45:39.168Z,90.33
2023-02-15T07:46:39.219Z,90.54
2023-02-15T07:47:39.139Z,89.61
2023-02-15T07:48:39.151Z,90.54
2023-02-15T07:49:39.127Z,90.23
2023-02-15T07:50:39.122Z,89.81
2023-02-15T07:51:39.105Z,90.23
2023-02-15T07:52:39.108Z,90.50
2023-02-15T07:53:39.080Z,89.77
2023-02-15T07:54:39.070Z,89.36
2023-02-15T07:55:39.059Z,89.92
2023-02-15T07:56:39.056Z,90.64
2023-02-15T07:57:39.036Z,90.54
2023-02-15T07:58:39.050Z,90.81
2023-02-15T07:59:39.007Z,90.29
2023-02-15T08:00:38.997Z,90.44
2023-02-15T08:01:38.989Z,90.95
2023-02-15T08:02:39.016Z,90.95
2023-02-15T08:03:38.995Z,90.81
2023-02-15T08:04:38.977Z,90.23
2023-02-15T08:05:38.956Z,91.62
2023-02-15T08:06:38.942Z,91.58
2023-02-15T08:07:38.929Z,91.47
2023-02-15T08:08:38.913Z,91.12
2023-02-15T08:09:38.896Z,90.70
2023-02-15T08:10:38.897Z,90.64
2023-02-15T08:11:38.890Z,90.81
2023-02-15T08:12:38.866Z,90.70
2023-02-15T08:13:38.870Z,91.06
2023-02-15T08:14:38.849Z,91.12
2023-02-15T08:15:38.850Z,90.39
2023-02-15T08:16:38.919Z,90.81
2023-02-15T08:17:38.813Z,90.50
2023-02-15T08:18:38.805Z,90.50
2023-02-15T08:19:38.791Z,90.60
2023-02-15T08:20:38.788Z,90.50
2023-02-15T08:21:38.780Z,90.56
2023-02-15T08:22:38.760Z,90.25
2023-02-15T08:23:38.752Z,89.62
2023-02-15T08:24:38.755Z,89.73
2023-02-15T08:25:38.726Z,89.77
2023-02-15T08:26:41.394Z,89.98
2023-02-15T08:27:38.701Z,90.29
2023-02-15T08:28:39.860Z,90.81
2023-02-15T08:29:38.683Z,90.77
2023-02-15T08:30:38.735Z,90.14
2023-02-15T08:31:38.832Z,89.83
2023-02-15T08:32:38.668Z,89.73
2023-02-15T08:33:38.643Z,89.56
2023-02-15T08:34:38.622Z,90.08
2023-02-15T08:35:38.612Z,90.29
2023-02-15T08:36:38.602Z,90.39
2023-02-15T08:37:38.591Z,90.70
2023-02-15T08:38:38.591Z,90.91
2023-02-15T08:39:38.561Z,90.81
2023-02-15T08:40:38.563Z,90.70
2023-02-15T08:41:38.545Z,90.66
2023-02-15T08:42:38.547Z,89.87
2023-02-15T08:43:38.529Z,90.23
2023-02-15T08:44:38.533Z,91.37
2023-02-15T08:45:38.571Z,91.47
2023-02-15T08:46:38.491Z,91.27
2023-02-15T08:47:38.471Z,91.68
2023-02-15T08:48:38.519Z,91.47
2023-02-15T08:49:38.449Z,90.81
2023-02-15T08:50:38.473Z,91.06
2023-02-15T08:51:38.428Z,91.06
2023-02-15T08:52:38.423Z,90.60
2023-02-15T08:53:38.419Z,90.95
2023-02-15T08:54:38.398Z,90.95
2023-02-15T08:55:38.379Z,91.37
2023-02-15T08:56:38.394Z,91.58
2023-02-15T08:57:38.361Z,91.47
2023-02-15T08:58:38.352Z,91.68
2023-02-15T08:59:38.342Z,91.64
2023-02-15T09:00:38.327Z,91.16
2023-02-15T09:01:38.362Z,92.10
2023-02-15T09:02:38.406Z,91.47
2023-02-15T09:03:38.298Z,91.53
2023-02-15T09:04:38.281Z,91.53
2023-02-15T09:05:38.273Z,92.05
2023-02-15T09:06:38.272Z,91.22
2023-02-15T09:07:38.238Z,91.53
2023-02-15T09:08:38.251Z,91.53
2023-02-15T09:09:38.226Z,91.53
2023-02-15T09:10:38.220Z,91.53
2023-02-15T09:11:38.198Z,91.53
2023-02-15T09:12:38.198Z,91.53
2023-02-15T09:13:38.177Z,91.74
2023-02-15T09:14:38.186Z,91.53
2023-02-15T09:15:38.159Z,91.80
2023-02-15T09:16:38.189Z,90.97
2023-02-15T09:17:38.129Z,90.20
2023-02-15T09:18:38.118Z,90.00
2023-02-15T09:19:38.218Z,89.54
2023-02-15T09:20:38.113Z,89.07
2023-02-15T09:21:38.096Z,89.42
2023-02-15T09:22:38.075Z,89.83
2023-02-15T09:23:38.079Z,90.10
2023-02-15T09:24:38.055Z,89.23
2023-02-15T09:25:38.043Z,89.44
2023-02-15T09:26:38.048Z,89.13
2023-02-15T09:27:38.017Z,88.20
2023-02-15T09:28:38.015Z,88.65
2023-02-15T09:29:37.993Z,89.52
2023-02-15T09:30:38.052Z,89.94
2023-02-15T09:31:38.063Z,90.25
2023-02-15T09:32:37.975Z,90.25
2023-02-15T09:33:37.962Z,90.45
2023-02-15T09:34:37.941Z,90.25
2023-02-15T09:35:37.953Z,90.25
2023-02-15T09:36:37.911Z,89.77
2023-02-15T09:37:37.902Z,90.81
2023-02-15T09:38:37.914Z,91.53
2023-02-15T09:39:37.882Z,91.08
2023-02-15T09:40:37.874Z,91.08
2023-02-15T09:41:37.861Z,90.66
2023-02-15T09:42:37.841Z,90.72
2023-02-15T09:43:37.842Z,90.20
2023-02-15T09:44:37.834Z,90.20
2023-02-15T09:45:37.862Z,90.00
2023-02-15T09:46:37.803Z,89.54
2023-02-15T09:47:37.794Z,89.23
2023-02-15T09:48:37.783Z,88.71
2023-02-15T09:49:37.785Z,88.30
2023-02-15T09:50:37.770Z,88.65
2023-02-15T09:51:37.741Z,88.71
2023-02-15T09:52:37.753Z,88.55
2023-02-15T09:53:37.733Z,88.51
2023-02-15T09:54:37.721Z,88.61
2023-02-15T09:55:37.718Z,87.82
2023-02-15T09:56:37.705Z,88.45
2023-02-15T09:57:37.673Z,89.07
2023-02-15T09:58:37.662Z,88.76
2023-02-15T09:59:37.658Z,88.82
2023-02-15T10:00:37.662Z,88.51
2023-02-15T10:01:37.664Z,87.99
2023-02-15T10:02:37.631Z,87.99
2023-02-15T10:03:37.616Z,88.09
2023-02-15T10:04:37.649Z,88.34
2023-02-15T10:05:37.583Z,88.45
2023-02-15T10:06:37.602Z,88.65
2023-02-15T10:07:37.570Z,88.39
2023-02-15T10:08:37.553Z,89.21
2023-02-15T10:09:37.547Z,88.84
2023-02-15T10:10:37.532Z,89.73
2023-02-15T10:11:37.524Z,89.58
2023-02-15T10:12:37.534Z,89.28
2023-02-15T10:13:37.502Z,89.03
2023-02-15T10:14:37.495Z,87.78
2023-02-15T10:15:37.476Z,88.34
2023-02-15T10:16:37.510Z,87.93
2023-02-15T10:17:37.453Z,88.18
2023-02-15T10:18:37.596Z,88.59
2023-02-15T10:19:37.438Z,88.90
2023-02-15T10:20:37.429Z,88.69
2023-02-15T10:21:37.421Z,88.65
2023-02-15T10:22:37.402Z,88.34
2023-02-15T10:23:37.395Z,87.93
2023-02-15T10:24:40.606Z,87.97
2023-02-15T10:25:37.362Z,88.86
2023-02-15T10:26:37.352Z,88.65
2023-02-15T10:27:37.345Z,88.76
2023-02-15T10:28:37.322Z,88.30
2023-02-15T10:29:37.329Z,87.72
2023-02-15T10:30:37.406Z,87.99
2023-02-15T10:31:37.479Z,87.99
2023-02-15T10:32:37.299Z,87.68
2023-02-15T10:33:37.271Z,87.47
2023-02-15T10:34:37.260Z,87.27
2023-02-15T10:35:37.250Z,86.60
2023-02-15T10:36:37.258Z,86.47
2023-02-15T10:37:37.229Z,87.14
2023-02-15T10:38:37.210Z,87.90
2023-02-15T10:39:37.208Z,88.39
2023-02-15T10:40:37.191Z,88.69
2023-02-15T10:41:37.189Z,88.13
2023-02-15T10:42:37.189Z,87.14
2023-02-15T10:43:37.160Z,87.55
2023-02-15T10:44:37.155Z,87.76
2023-02-15T10:45:37.158Z,87.55
2023-02-15T10:46:37.136Z,87.72
2023-02-15T10:47:37.122Z,87.30
2023-02-15T10:48:37.118Z,86.96
2023-02-15T10:49:37.089Z,86.23
2023-02-15T10:50:37.093Z,85.75
2023-02-15T10:51:37.093Z,85.89
2023-02-15T10:52:37.066Z,86.72
2023-02-15T10:53:37.049Z,86.79
2023-02-15T10:54:37.049Z,86.07
2023-02-15T10:55:37.028Z,86.15
2023-02-15T10:56:37.020Z,87.07
2023-02-15T10:57:37.011Z,87.18
2023-02-15T10:58:37.001Z,87.49
2023-02-15T10:59:36.987Z,87.43
2023-02-15T11:00:36.982Z,88.05
2023-02-15T11:01:37.054Z,88.53
2023-02-15T11:02:36.947Z,87.87
2023-02-15T11:03:36.951Z,87.41
2023-02-15T11:04:36.937Z,86.58
2023-02-15T11:05:36.920Z,86.07
2023-02-15T11:06:36.930Z,85.71
2023-02-15T11:07:36.887Z,85.30
2023-02-15T11:08:36.933Z,85.09
2023-02-15T11:09:36.868Z,84.16
2023-02-15T11:10:36.866Z,84.27
2023-02-15T11:11:36.848Z,84.51
2023-02-15T11:12:36.866Z,84.51
2023-02-15T11:13:36.826Z,84.27
2023-02-15T11:14:36.815Z,84.27
2023-02-15T11:15:36.812Z,83.95
2023-02-15T11:16:36.810Z,83.85
2023-02-15T11:17:36.792Z,83.44
2023-02-15T11:18:36.798Z,83.54
2023-02-15T11:19:36.760Z,83.29
2023-02-15T11:20:36.752Z,82.88
2023-02-15T11:21:36.735Z,82.57
2023-02-15T11:22:36.716Z,81.99
2023-02-15T11:23:36.706Z,82.03
2023-02-15T11:24:36.707Z,82.86
2023-02-15T11:25:36.687Z,83.58
2023-02-15T11:26:36.676Z,83.26
2023-02-15T11:27:36.723Z,83.51
2023-02-15T11:28:36.660Z,83.78
2023-02-15T11:29:36.676Z,83.68
2023-02-15T11:30:36.665Z,83.68
2023-02-15T11:31:36.737Z,83.44
2023-02-15T11:32:36.604Z,82.81
2023-02-15T11:33:36.596Z,82.40
2023-02-15T11:34:36.592Z,82.19
2023-02-15T11:35:36.585Z,81.82
2023-02-15T11:36:36.556Z,82.17
2023-02-15T11:37:36.554Z,83.14
2023-02-15T11:38:36.534Z,83.45
2023-02-15T11:39:38.319Z,83.86
2023-02-15T11:40:36.532Z,84.28
2023-02-15T11:41:36.539Z,83.65
2023-02-15T11:42:36.495Z,83.76
2023-02-15T11:43:36.497Z,84.23
2023-02-15T11:44:36.483Z,83.58
2023-02-15T11:45:36.468Z,82.89
2023-02-15T11:46:36.488Z,82.89
2023-02-15T11:47:36.455Z,83.45
2023-02-15T11:48:36.424Z,83.80
2023-02-15T11:49:36.420Z,84.48
2023-02-15T11:50:36.403Z,83.97
2023-02-15T11:51:36.390Z,84.55
2023-02-15T11:52:36.372Z,83.51
2023-02-15T11:53:36.381Z,83.62
2023-02-15T11:54:36.351Z,83.16
2023-02-15T11:55:36.351Z,82.71
2023-02-15T11:56:36.330Z,82.71
2023-02-15T11:57:36.353Z,81.84
2023-02-15T11:58:36.313Z,81.26
2023-02-15T11:59:36.322Z,81.20
2023-02-15T12:00:36.289Z,82.06
2023-02-15T12:01:36.276Z,82.93
2023-02-15T12:02:36.271Z,83.76
2023-02-15T12:03:36.272Z,84.17
2023-02-15T12:04:36.249Z,83.93
2023-02-15T12:05:36.253Z,82.95
2023-02-15T12:06:36.228Z,82.79
2023-02-15T12:07:36.210Z,83.24
2023-02-15T12:08:36.192Z,83.55
2023-02-15T12:09:36.191Z,83.45
2023-02-15T12:10:36.170Z,83.86
2023-02-15T12:11:36.181Z,83.31
2023-02-15T12:12:36.151Z,83.20
2023-02-15T12:13:36.152Z,83.55
2023-02-15T12:14:36.120Z,83.41
2023-02-15T12:15:36.124Z,83.45
2023-02-15T12:16:36.203Z,83.59
2023-02-15T12:17:36.107Z,84.31
2023-02-15T12:18:36.077Z,84.17
2023-02-15T12:19:36.088Z,83.93
2023-02-15T12:20:36.260Z,83.47
2023-02-15T12:21:36.137Z,82.86
2023-02-15T12:22:36.217Z,82.54
2023-02-15T12:23:36.038Z,82.23
2023-02-15T12:24:36.008Z,82.44
2023-02-15T12:25:36.006Z,82.50
2023-02-15T12:26:36.007Z,81.68
2023-02-15T12:27:35.979Z,81.05
2023-02-15T12:28:36.901Z,81.40
2023-02-15T12:29:35.968Z,81.99
2023-02-15T12:30:35.940Z,81.16
2023-02-15T12:31:36.056Z,81.40
2023-02-15T12:32:35.922Z,82.29
2023-02-15T12:33:35.907Z,81.78
2023-02-15T12:34:35.899Z,81.43
2023-02-15T12:35:35.939Z,80.50
2023-02-15T12:36:35.885Z,81.26
2023-02-15T12:37:35.873Z,81.37
2023-02-15T12:38:35.856Z,81.78
2023-02-15T12:39:35.842Z,81.16
2023-02-15T12:40:35.926Z,81.92
2023-02-15T12:41:36.091Z,81.99
2023-02-15T12:42:35.813Z,81.57
2023-02-15T12:43:35.813Z,81.88
2023-02-15T12:44:35.791Z,81.57
2023-02-15T12:45:35.789Z,81.37
2023-02-15T12:46:38.450Z,81.47
2023-02-15T12:47:35.757Z,81.33
2023-02-15T12:48:40.625Z,80.67
2023-02-15T12:49:36.737Z,80.05
2023-02-15T12:50:35.723Z,79.98
2023-02-15T12:51:35.714Z,80.22
2023-02-15T12:52:35.729Z,80.68